Home > Products > Valid Products > MTR

000
SAZS31 NSTU 180253
MTRPPG
METAR NSTU 180250Z 09003KT 12SM SCT020 SCT040 OVC080 27/25 A2988 RMK
SLP120 8/42/ T02740245 56015=




000
SAZS31 NSTU 180157
MTRPPG
METAR NSTU 180150Z 09005KT 12SM SCT016CB BKN040 BKN080 28/25 A2989
RMK CB S-SW SLP124 T02800248




000
SAZS31 NSTU 180057
MTRPPG
METAR NSTU 180052Z 09010KT 12SM FEW028 SCT045 BKN100 30/25 A2991 RMK
SLP129 T02960253




000
SAZS31 NSTU 180002
MTRPPG
METAR NSTU 172350Z 10011KT 12SM FEW014TCU BKN038 BKN080 28/25 A2993
RMK TCU E-S-SW SLP135 60023 8/870 T02820251 10282 20252 56019=




000
SAZS31 NSTU 172259
MTRPPG
METAR NSTU 172255Z 12009KT 12SM SCT016TCU BKN038 BKN080 28/26 A2995
RMK TCU W-NW-N SLP144 T02800255




000
SAZS31 NSTU 172102
MTRPPG
METAR NSTU 172058Z 14010KT 10SM SCT016TCU BKN032 BKN080 28/25 A2999
RMK SHRAE35 TCU ALQDS SLP154 60023 8/870 T02750254 51014=




000
SAZS31 NSTU 171956
MTRPPG
METAR NSTU 171952Z VRB03KT 12SM -SHRA SCT016TCU BKN035 BKN080 26/26
A2998 RMK TCU ALQDS SLP152 T02610255=




000
SAZS31 NSTU 171908
MTRPPG
METAR NSTU 171850Z 11005KT 12SM -SHRA SCT018TCU BKN030 BKN090 25/25
A2996 RMK SHRAB25 TCU OHD SLP147 T02520248=




000
SAZS31 NSTU 171854
MTRPPG
METAR NSTU 171850Z 11005KT 12SM -SHRA SCT018TCU BKN030 BKN090 25/25
A2996 RMK SHRAB25 TCU OHD SLP147 T02520248=




000
SAZS31 NSTU 171758
MTRPPG
METAR NSTU 171750Z 11008KT 12SM SCT018TCU BKN030 BKN090 27/25 A2994
RMK TCU ALQDS SLP141 60002 8/470 T02660250 10268 20260 52017=




000
SAZS31 NSTU 171653
MTRPPG
METAR NSTU 171650Z 09007KT 10SM SCT022 SCT040 BKN100 BKN200 26/25
A2992 RMK SLP132 T02610249=




000
SAZS31 NSTU 171558
MTRPPG
METAR NSTU 171555Z 11006KT 10SM FEW022 SCT040 26/25 A2990 RMK SLP125
T02600248=




000
SAZS31 NSTU 171459
MTRPPG
METAR NSTU 171454Z 10007KT 10SM SCT018 SCT040 BKN100 26/25 A2989 RMK
SHRAE40 SLP124 60002 8/850 T02610250 57003=




000
SAZS31 NSTU 171458
MTRPPG
METAR NSTU 171354Z 12009KT 10SM -SHRA SCT018TCU BKN040 OVC100 26/25
A2989 RMK SHRAB45 TCU ALQDS SLP122 T02600249=




000
SAZS31 NSTU 171259
MTRPPG
METAR NSTU 171256Z 12009KT 10SM FEW022 27/25 A2990 RMK SLP125
T02670248=




000
SAZS31 NSTU 171209
MTRPPG
METAR NSTU 171150Z 10008KT 10SM FEW022 SCT100 27/25 A2990 RMK SLP127
8/140 T02680248 10275 20268 57010=




000
SAZS31 NSTU 171053
MTRPPG
METAR NSTU 171050Z 11008KT 10SM FEW022 SCT100 27/25 A2993 RMK SLP135
T02680247 403150263=




000
SAZS31 NSTU 170959
MTRPPG
METAR NSTU 170956Z 11008KT 10SM FEW019 27/25 A2993 RMK SLP137
T02700250=




000
SAZS31 NSTU 170858
MTRPPG
METAR NSTU 170855Z 11009KT 10SM FEW019 27/25 A2993 RMK SLP137 8/100
T02710251 51014=




000
SAZS31 NSTU 170759
MTRPPG
METAR NSTU 170755Z 11009KT 10SM FEW019 27/25 A2993 RMK SLP135
T02720252=




000
SAZS31 NSTU 170658
MTRPPG
METAR NSTU 170654Z 10010KT 10SM SCT019 27/25 A2992 RMK SLP132
T02730252=




000
SAZS31 NSTU 170501
MTRPPG
METAR NSTU 170452Z 10011KT 12SM SCT019TCU BKN040 28/25 A2988 RMK TCU
ALQDS SLP117 T02780253=




000
SAZS31 NSTU 170359
MTRPPG
METAR NSTU 170352Z 09011KT 12SM SCT019 BKN035 29/26 A2986 RMK SLP113
T02890256=




000
SAZS31 NSTU 170359
MTRPPG
METAR NSTU 170352Z 09011KT 12SM SCT019 BKN035 29/26 A2986 RMK SLP113
T02890256=




000
SAZS31 NSTU 170314
MTRPPG
METAR NSTU 170255Z 10010KT 12SM FEW019 SCT035 30/26 A2986 RMK SLP112
8/800 T03030261 57014=




000
SAZS31 NSTU 170204
MTRPPG
METAR NSTU 170154Z 09011KT 12SM FEW019 SCT060 31/26 A2986 RMK SLP113
T03090261




000
SAZS31 NSTU 170158
MTRPPG
METAR NSTU 170154Z 09011KT 12SM FEW019 SCT060 31/26 A2986 RMK SLP113
 T03090261




000
SAZS31 NSTU 170053
MTRPPG
METAR NSTU 170050Z 10011KT 12SM FEW020 31/27 A2988 RMK SLP119
T03070265=




000
SAZS31 NSTU 162357
MTRPPG
METAR NSTU 162350Z 09011KT 12SM FEW020 FEW100 32/27 A2990 RMK SLP125
 8/170 T03150267 10315 20270 56017=




000
SAZS31 NSTU 162254
MTRPPG
METAR NSTU 162251Z 09010KT 12SM FEW018 SCT100 31/27 A2992 RMK SLP132
 T03120266=




000
SAZS31 NSTU 162159
MTRPPG
METAR NSTU 162155Z 09012KT 12SM FEW018 SCT100 31/27 A2994 RMK SLP139
 T03100266=




000
SAZS31 NSTU 162158
MTRPPG
METAR NSTU 162053Z 09013KT 12SM FEW018 30/26 A2995 RMK SLP142 8/100
T03040262 51008=




000
SAZS31 NSTU 161955
MTRPPG
METAR NSTU 161952Z 09013KT 12SM SCT015 SCT040 29/26 A2995 RMK SLP142
 T02900260=




000
SAZS31 NSTU 161854
MTRPPG
METAR NSTU 161850Z 10012KT 12SM FEW015 29/26 A2994 RMK SLP139
T02850257=




000
SAZS31 NSTU 161758
MTRPPG
METAR NSTU 161752Z 09010KT 12SM SCT022TCU SCT050 BKN100 27/25 A2992
RMK TCU N-NE SLP134 8/850 T02700253 10270 20263 52014=




000
SAZS31 NSTU 161652
MTRPPG
METAR NSTU 161650Z 10010KT 11SM SCT022 SCT050 BKN100 BKN200 27/25
A2990 RMK SLP127 T02680251=




000
SAZS31 NSTU 161559
MTRPPG
METAR NSTU 161552Z 11008KT 10SM FEW022 SCT100 27/25 A2989 RMK SLP122
T02660247=




000
SAZS31 NSTU 161555
MTRPPG
METAR NSTU 161552Z 11008KT 10SM FEW022 SCT100 27/25 A2989 RMK SLP122
T02660247=




000
SAZS31 NSTU 161452
MTRPPG
METAR NSTU 161450Z 10010KT 10SM FEW022 SCT100 27/25 A2988 RMK SLP120
8/150 T02670253 57012=




000
SAZS31 NSTU 161355
MTRPPG
METAR NSTU 161352Z 11009KT 10SM FEW022 SCT080 27/25 A2988 RMK SLP120
T02670252=




000
SAZS31 NSTU 161254
MTRPPG
METAR NSTU 161250Z 12011KT 10SM SCT022TCU SCT080 27/26 A2989 RMK TCU
NW-NE SLP124 T02660256=





000
SAZS31 NSTU 161155
MTRPPG
METAR NSTU 161150Z 12010KT 10SM FEW022 SCT050 BKN100 26/26 A2992 RMK
SLP132 70009 8/410 T02630257 10275 20263 57010=




000
SAZS31 NSTU 161053
MTRPPG
METAR NSTU 161050Z 13010KT 10SM SCT022 BKN100 26/26 A2993 RMK SLP137
T02640257 403080250=




000
SAZS31 NSTU 160956
MTRPPG
METAR NSTU 160954Z 11011KT 10SM SCT018 BKN080 27/26 A2994 RMK SLP141
T02690255=




000
SAZS31 NSTU 160900
MTRPPG
METAR NSTU 160855Z 12010KT 10SM SCT015 SCT080 27/26 A2995 RMK SLP142
8/170 T02700257 51015=




000
SAZS31 NSTU 160758
MTRPPG
METAR NSTU 160754Z 12009KT 10SM SCT015 BKN080 27/26 A2994 RMK SLP141
T02700258=




000
SAZS31 NSTU 160658
MTRPPG
METAR NSTU 160654Z 14009KT 10SM BKN017 BKN080 27/26 A2993 RMK SLP135
T02720261=




000
SAZS31 NSTU 160603
MTRPPG
METAR NSTU 160550Z 11007KT 12SM SCT017TCU BKN080 BKN160 28/26 A2990
RMK TCU ALQDS SLP127 8/271 T02750256 10308 20275 51012=




000
SAZS31 NSTU 160501
MTRPPG
METAR NSTU 160455Z 09007KT 12SM SCT017TCU SCT080 BKN160 28/25 A2989
RMK TCU ALQDS SLP122 T02750251=




000
SAZS31 NSTU 160356
MTRPPG
METAR NSTU 160350Z 10008KT 12SM SCT017TCU SCT080 29/26 A2987 RMK TCU
SE-S-SW-W-NW SLP117 T02920261=




000
SAZS31 NSTU 160306
MTRPPG
METAR NSTU 160255Z 08008KT 12SM FEW025 SCT080 30/27 A2987 RMK SLP115
8/170 T03010265 56007=




000
SAZS31 NSTU 160158
MTRPPG
METAR NSTU 160156Z 10008KT 12SM FEW020 SCT080 30/26 A2987 RMK SLP115
 T02960264=




000
SAZS31 NSTU 160057
MTRPPG
METAR NSTU 160053Z 09011KT 12SM FEW020 SCT080 31/27 A2987 RMK SLP117
 T03080267=




000
SAZS31 NSTU 152355
MTRPPG
METAR NSTU 152351Z 09011KT 12SM SCT016 SCT080 30/27 A2989 RMK SLP122
 8/170 T03030268 10303 20261 56017=




000
SAZS31 NSTU 152253
MTRPPG
METAR NSTU 152250Z 09012KT 12SM SCT016 SCT080 30/27 A2991 RMK SLP129
 T03000266=




000
SAZS31 NSTU 152157
MTRPPG
METAR NSTU 152154Z 09010KT 12SM FEW018 SCT080 30/27 A2993 RMK SLP134
 T03020269=




000
SAZS31 NSTU 152055
MTRPPG
METAR NSTU 152050Z 07008KT 12SM FEW018 SCT040 SCT080 29/27 A2994 RMK
 SLP139 8/480 T02930267 53012




000
SAZS31 NSTU 151956
MTRPPG
METAR NSTU 151952Z 09010KT 12SM FEW019 SCT050 SCT100 29/27 A2993 RMK
SLP137 T02900267=




000
SAZS31 NSTU 151853
MTRPPG
METAR NSTU 151850Z 07007KT 12SM FEW018 SCT050 BKN100 27/26 A2992 RMK
SLP132 T02730258=




000
SAZS31 NSTU 151803 COR
MTRPPG
METAR NSTU 151650Z COR 00000KT 10SM SCT018TCU BKN050 BKN100 25/25
A2988 RMK SHRAE45 TCU W-N-NE SLP120 T02500249=




000
SAZS31 NSTU 151801
MTRPPG
METAR NSTU 151753Z 12007KT 12SM SCT016TCU BKN050 BKN100 26/26 A2990
RMK TCU N-NE SLP127 60002 8/270 T02610256 10261 20250 52017=




000
SAZS31 NSTU 151658
MTRPPG
METAR NSTU 151650Z 00000KT 10SM SCT018TCU BKN050 BKN100 25/25
A2988 RMK SHRAE45 TCU W-N-NE SLP120 T02500249=




000
SAZS31 NSTU 151654
MTRPPG
METAR NSTU 151650Z 00000KT 10SM SCT018TCU BKN050 BKN100 25/25 A2988
RMK TCU W-N-NE SLP120 T02500249=




000
SAZS31 NSTU 151628
MTRPPG
METAR NSTU 151552Z 03003KT 10SM -SHRA SCT018TCU BKN050 OVC100 25/25
A2987 RMK SHRAB45 TCU ALQDS SLP117 T02540253=




000
SAZS31 NSTU 151355
MTRPPG
METAR NSTU 151350Z 11012KT 10SM SCT022 SCT050 BKN100 26/25 A2984 RMK
SLP107 T02570253=




000
SAZS31 NSTU 151253
MTRPPG
METAR NSTU 151250Z 12013KT 10SM SCT022 BKN050 OVC100 26/25 A2985 RMK
SHRAE15 SLP108 T02570253=




000
SAZS31 NSTU 151220
MTRPPG
METAR NSTU 151154Z 12011KT 10SM -SHRA SCT018TCU BKN040 OVC090 26/26
A2986 RMK SHRAB05 TCU ALQDS SLP113 60017 70021 8/42/ T02560255 10263
20250 57007=




000
SAZS31 NSTU 151202
MTRPPG
METAR NSTU 151154Z 12011KT 10SM -SHRA SCT018TCU BKN040 OVC090 26/26
A2986 RMK SHRAB05 TCU ALQDS SLP113 60017 70021 8/42/ T02560255 10263
20250 57007=




000
SAZS31 NSTU 151056
MTRPPG
METAR NSTU 151050Z 12010KT 10SM -RA SCT018TCU BKN040 OVC090 26/25
A2988 RMK RAB35 TCU ALQDS SLP120 T02560254 402860250=





000
SAZS31 NSTU 150954
MTRPPG
METAR NSTU 150951Z 12009KT 10SM SCT021 BKN040 OVC090 26/26 A2988 RMK
SLP120 T02630256=





000
SAZS31 NSTU 150906
MTRPPG
METAR NSTU 150855Z 08009KT 10SM SCT018 BKN040 OVC090 26/25 A2988 RMK
 SLP120 60010 8/17/ T02550253 51008=





000
SAZS31 NSTU 150803
MTRPPG
METAR NSTU 150752Z 03003KT 07SM -SHRA SCT014 BKN040 OVC090 25/25
A2988 RMK SLP120 T02540253=




000
SAZS31 NSTU 150654
MTRPPG
METAR NSTU 150650Z 07006KT 07SM -SHRA SCT014 BKN040 OVC090 25/25
A2987 RMK SLP117 T02520252=




000
SAZS31 NSTU 150606
MTRPPG
METAR NSTU 150552Z 04003KT 07SM -SHRA SCT014 BKN040 OVC090 25/25
A2986 RMK SHRAE30B50 SLP112 60004 8/17/ T02500245 10286 20250 53019=




000
SAZS31 NSTU 150406
MTRPPG
METAR NSTU 150350Z 09014KT 10SM -SHRA SCT014 BKN045 OVC090 26/25
A2982 RMK SHRAB37 SLP098 T02640250=





    US Dept of Commerce
    National Oceanic and Atmospheric Administration
    National Weather Service
    1325 East West Highway
    Silver Spring, MD 20910
    Page Author: NWS Internet Services Team
Disclaimer
Information Quality
Credits
Glossary
Privacy Policy
Freedom of Information Act (FOIA)
About Us
Career Opportunities